Time;durP1;ratioP1;P1;durP2;ratioP2;P2;SDS_P1;SDS_P2;PMS_P1;PMS_P2;Temp;Humidity;BMP_temperature;BMP_pressure;BME280_temperature;BME280_humidity;BME280_pressure;Samples;Min_cycle;Max_cycle;Signal;HPM_P1;HPM_P2
2023/06/28 00:00:18;;;;;;;6.10;2.87;;;19.40;1.00;;;;;;5052049;28;20195;-78
2023/06/28 00:02:44;;;;;;;6.73;3.37;;;19.40;1.00;;;;;;5052690;28;20295;-78
2023/06/28 00:05:10;;;;;;;7.73;3.10;;;19.30;1.00;;;;;;5052866;28;20758;-78
2023/06/28 00:07:36;;;;;;;4.43;2.90;;;19.30;1.00;;;;;;5056447;28;20448;-78
2023/06/28 00:10:03;;;;;;;4.80;2.83;;;19.30;1.00;;;;;;5056735;28;20816;-78
2023/06/28 00:12:30;;;;;;;6.17;2.90;;;19.30;1.00;;;;;;5053817;28;20432;-78
2023/06/28 00:14:56;;;;;;;6.27;3.00;;;19.20;1.00;;;;;;5056798;28;20445;-78
2023/06/28 00:17:27;;;;;;;9.23;2.73;;;19.20;1.00;;;;;;5056877;28;20436;-78
2023/06/28 00:19:53;;;;;;;4.80;3.00;;;19.20;1.00;;;;;;5055843;28;20793;-78
2023/06/28 00:22:19;;;;;;;6.77;3.40;;;19.20;1.00;;;;;;5056959;28;20441;-78
2023/06/28 00:24:44;;;;;;;6.93;3.03;;;19.10;1.00;;;;;;5055799;28;20452;-78
2023/06/28 00:27:11;;;;;;;8.20;3.60;;;19.10;1.00;;;;;;5056254;28;20685;-78
2023/06/28 00:29:37;;;;;;;6.10;3.30;;;19.10;1.00;;;;;;5054984;28;20200;-78
2023/06/28 00:32:03;;;;;;;5.70;3.07;;;19.00;1.00;;;;;;5052100;28;20449;-78
2023/06/28 00:34:29;;;;;;;7.03;3.13;;;18.90;1.00;;;;;;5056210;28;20427;-78
2023/06/28 00:36:54;;;;;;;5.00;3.20;;;18.90;13.20;;;;;;5055569;28;20433;-78
2023/06/28 00:39:20;;;;;;;5.90;3.10;;;18.80;1.00;;;;;;5056477;28;20269;-78
2023/06/28 00:41:45;;;;;;;5.30;2.90;;;18.80;1.00;;;;;;5056523;28;20830;-78
2023/06/28 00:44:11;;;;;;;4.00;2.93;;;18.70;1.00;;;;;;5055682;28;20268;-79
2023/06/28 00:46:36;;;;;;;4.97;3.57;;;18.70;47.90;;;;;;5055800;28;20662;-78
2023/06/28 00:49:02;;;;;;;5.57;3.33;;;18.60;99.90;;;;;;5057598;28;20298;-78
2023/06/28 00:51:29;;;;;;;9.73;3.17;;;18.60;99.90;;;;;;5054349;28;20176;-78
2023/06/28 00:53:56;;;;;;;8.10;4.17;;;18.50;1.00;;;;;;5054539;28;20462;-78
2023/06/28 00:56:23;;;;;;;9.20;3.60;;;18.50;1.00;;;;;;5055143;28;20432;-78
2023/06/28 00:58:50;;;;;;;8.60;3.83;;;18.50;1.00;;;;;;5054577;28;20457;-78
2023/06/28 01:01:16;;;;;;;7.40;3.40;;;18.40;1.00;;;;;;5055011;28;20431;-78
2023/06/28 01:03:42;;;;;;;5.67;3.50;;;18.40;1.00;;;;;;5052070;28;20447;-78
2023/06/28 01:06:12;;;;;;;6.77;3.30;;;18.40;1.00;;;;;;5056187;28;20184;-78
2023/06/28 01:08:40;;;;;;;7.83;3.33;;;18.40;1.00;;;;;;5054502;28;20943;-78
2023/06/28 01:11:08;;;;;;;4.73;3.10;;;18.40;1.00;;;;;;5053846;28;20538;-78
2023/06/28 01:13:35;;;;;;;7.90;3.80;;;18.40;1.00;;;;;;5055947;28;20435;-78
2023/06/28 01:16:01;;;;;;;5.47;3.80;;;18.30;1.00;;;;;;5055537;28;20445;-80
2023/06/28 01:18:27;;;;;;;6.23;2.93;;;18.30;1.00;;;;;;5053061;28;20457;-78
2023/06/28 01:20:55;;;;;;;4.87;3.53;;;18.30;47.40;;;;;;5051510;28;20439;-78
2023/06/28 01:23:25;;;;;;;7.40;3.57;;;18.30;49.90;;;;;;5054897;28;20191;-78
2023/06/28 01:25:51;;;;;;;6.87;3.30;;;18.30;99.90;;;;;;5054416;28;20521;-78
2023/06/28 01:28:19;;;;;;;7.97;3.90;;;18.20;99.90;;;;;;5054880;28;20522;-78
2023/06/28 01:30:48;;;;;;;10.90;4.10;;;18.20;99.90;;;;;;5055330;28;20478;-79
2023/06/28 01:33:17;;;;;;;8.83;4.30;;;18.20;99.90;;;;;;5055873;28;20430;-78
2023/06/28 01:35:42;;;;;;;6.60;4.10;;;18.20;99.90;;;;;;5055026;28;20441;-78
2023/06/28 01:38:10;;;;;;;7.70;4.10;;;18.10;99.90;;;;;;5050877;28;20455;-78
2023/06/28 01:40:37;;;;;;;7.50;4.40;;;18.10;99.90;;;;;;5033474;28;20184;-78
2023/06/28 01:43:06;;;;;;;9.30;3.87;;;18.10;99.90;;;;;;5053846;28;20441;-79
2023/06/28 01:45:32;;;;;;;7.13;4.90;;;18.10;99.90;;;;;;5054340;28;20480;-78
2023/06/28 01:47:58;;;;;;;6.43;4.67;;;18.10;99.90;;;;;;5053671;28;20476;-78
2023/06/28 01:50:24;;;;;;;5.10;4.00;;;18.10;1.00;;;;;;5054584;28;20998;-78
2023/06/28 01:52:49;;;;;;;7.50;3.80;;;18.10;1.00;;;;;;5055170;28;20189;-78
2023/06/28 01:55:15;;;;;;;6.03;3.80;;;18.10;99.90;;;;;;5055113;28;20203;-78
2023/06/28 01:57:40;;;;;;;8.53;3.87;;;18.10;99.90;;;;;;5050638;28;20206;-78
2023/06/28 02:00:08;;;;;;;10.80;4.57;;;18.10;99.90;;;;;;5053379;28;20254;-78
2023/06/28 02:02:35;;;;;;;7.10;4.67;;;18.10;99.90;;;;;;5054977;28;20220;-78
2023/06/28 02:05:00;;;;;;;5.33;4.07;;;18.10;1.00;;;;;;5054138;28;20465;-78
2023/06/28 02:07:26;;;;;;;7.50;4.77;;;18.10;1.00;;;;;;5055121;28;20810;-81
2023/06/28 02:09:51;;;;;;;6.00;3.77;;;18.00;1.00;;;;;;5053773;28;20736;-78
2023/06/28 02:12:17;;;;;;;5.40;3.80;;;18.00;1.00;;;;;;5054026;28;20188;-78
2023/06/28 02:14:42;;;;;;;6.83;3.80;;;18.00;1.00;;;;;;5050875;28;20186;-78
2023/06/28 02:17:14;;;;;;;6.73;4.30;;;18.10;99.90;;;;;;5053971;28;20616;-81
2023/06/28 02:19:40;;;;;;;9.20;4.20;;;18.10;99.90;;;;;;5053515;28;20193;-78
2023/06/28 02:22:06;;;;;;;8.23;4.50;;;18.10;99.90;;;;;;5053384;28;20815;-78
2023/06/28 02:24:31;;;;;;;8.50;4.10;;;18.10;99.90;;;;;;5048508;28;20442;-78
2023/06/28 02:26:57;;;;;;;6.27;3.57;;;18.10;99.90;;;;;;5054067;28;20410;-78
2023/06/28 02:29:22;;;;;;;6.43;3.90;;;18.10;99.90;;;;;;5052368;28;20722;-79
2023/06/28 02:31:49;;;;;;;7.60;3.97;;;18.10;99.90;;;;;;5049925;28;20191;-78
2023/06/28 02:34:14;;;;;;;7.20;3.80;;;18.10;99.90;;;;;;5053707;28;20184;-78
2023/06/28 02:36:40;;;;;;;6.57;4.60;;;18.10;99.90;;;;;;5053756;28;20677;-80
2023/06/28 02:39:05;;;;;;;5.83;4.00;;;18.10;99.90;;;;;;5052622;28;20234;-80
2023/06/28 02:41:31;;;;;;;10.00;3.80;;;18.10;99.90;;;;;;5054009;28;20268;-78
2023/06/28 02:43:56;;;;;;;7.43;4.10;;;18.10;29.60;;;;;;5054158;28;20185;-78
2023/06/28 02:46:22;;;;;;;7.70;3.60;;;18.10;1.00;;;;;;5052466;28;20198;-79
2023/06/28 02:48:47;;;;;;;4.93;3.43;;;18.20;1.00;;;;;;5050089;28;20214;-79
2023/06/28 02:51:13;;;;;;;8.60;4.50;;;18.20;1.00;;;;;;5053597;28;20180;-78
2023/06/28 02:53:38;;;;;;;8.20;3.30;;;18.20;1.00;;;;;;5052508;28;20277;-78
2023/06/28 02:56:04;;;;;;;9.90;3.80;;;18.20;1.00;;;;;;5053536;28;20180;-79
2023/06/28 02:58:29;;;;;;;11.60;4.40;;;18.20;1.00;;;;;;5052907;28;20232;-79
2023/06/28 03:00:57;;;;;;;6.03;4.40;;;18.20;99.90;;;;;;5052684;28;20217;-80
2023/06/28 03:03:23;;;;;;;5.93;3.10;;;18.20;1.00;;;;;;5049894;28;20182;-77
2023/06/28 03:05:48;;;;;;;12.87;6.10;;;18.20;1.00;;;;;;5052673;28;20451;-78
2023/06/28 03:08:14;;;;;;;5.80;3.60;;;18.20;99.90;;;;;;5052872;28;20210;-78
2023/06/28 03:10:40;;;;;;;9.77;3.60;;;18.10;99.90;;;;;;5052687;28;20226;-80
2023/06/28 03:13:05;;;;;;;6.70;3.33;;;18.10;99.90;;;;;;5053496;28;20187;-78
2023/06/28 03:15:31;;;;;;;7.13;3.30;;;18.20;99.90;;;;;;5053021;28;20498;-78
2023/06/28 03:17:57;;;;;;;6.33;3.37;;;18.10;99.90;;;;;;5052114;28;20785;-78
2023/06/28 03:20:23;;;;;;;6.50;3.47;;;18.20;99.90;;;;;;5052312;28;20610;-78
2023/06/28 03:22:49;;;;;;;4.10;3.43;;;18.20;99.90;;;;;;5048975;28;20194;-78
2023/06/28 03:25:15;;;;;;;9.10;3.93;;;18.20;99.90;;;;;;5051963;28;20185;-78
2023/06/28 03:27:41;;;;;;;11.27;5.60;;;18.20;99.90;;;;;;5052260;28;20549;-78
2023/06/28 03:30:07;;;;;;;12.83;7.97;;;18.20;99.90;;;;;;5052609;28;21035;-78
2023/06/28 03:32:32;;;;;;;9.97;8.37;;;18.20;99.90;;;;;;5053164;28;20203;-78
2023/06/28 03:34:58;;;;;;;17.67;10.70;;;18.20;99.90;;;;;;5052958;28;20436;-78
2023/06/28 03:37:23;;;;;;;10.93;7.03;;;18.30;1.00;;;;;;5053135;28;20180;-78
2023/06/28 03:39:49;;;;;;;10.07;6.43;;;18.30;1.00;;;;;;5049318;28;20638;-79
2023/06/28 03:42:14;;;;;;;10.20;6.63;;;18.20;99.90;;;;;;5054838;28;20216;-78
2023/06/28 03:44:40;;;;;;;10.13;5.90;;;18.30;99.90;;;;;;5055865;28;20227;-78
2023/06/28 03:47:06;;;;;;;12.13;5.90;;;18.30;99.90;;;;;;5054932;28;20233;-78
2023/06/28 03:49:31;;;;;;;6.40;4.40;;;18.30;1.00;;;;;;5056796;28;20300;-78
2023/06/28 03:51:57;;;;;;;10.00;4.47;;;18.30;1.00;;;;;;5057373;28;20196;-79
2023/06/28 03:54:22;;;;;;;12.63;5.20;;;18.30;1.00;;;;;;5056719;28;20184;-78
2023/06/28 03:56:49;;;;;;;14.60;4.63;;;18.30;1.00;;;;;;5053678;28;20458;-78
2023/06/28 03:59:14;;;;;;;9.47;5.50;;;18.30;1.00;;;;;;5057210;28;20209;-78
2023/06/28 04:01:40;;;;;;;8.37;5.03;;;18.30;1.00;;;;;;5054931;28;20437;-78
2023/06/28 04:04:05;;;;;;;9.70;5.10;;;18.30;1.00;;;;;;5057030;28;20186;-78
2023/06/28 04:06:31;;;;;;;7.43;4.10;;;18.30;1.00;;;;;;5056065;28;20188;-78
2023/06/28 04:08:56;;;;;;;8.40;5.07;;;18.30;1.00;;;;;;5054924;28;20208;-78
2023/06/28 04:11:22;;;;;;;6.53;4.30;;;18.30;1.00;;;;;;5056629;28;20186;-77
2023/06/28 04:13:47;;;;;;;11.00;4.90;;;18.30;1.00;;;;;;5052397;28;20197;-78
2023/06/28 04:16:13;;;;;;;8.63;5.33;;;18.40;1.00;;;;;;5056246;28;20610;-78
2023/06/28 04:18:38;;;;;;;12.10;5.03;;;18.40;1.00;;;;;;5055108;28;20215;-77
2023/06/28 04:21:04;;;;;;;8.20;4.67;;;18.50;1.00;;;;;;5056831;28;20619;-78
2023/06/28 04:23:29;;;;;;;8.17;5.17;;;18.50;1.00;;;;;;5056545;28;20200;-78
2023/06/28 04:25:57;;;;;;;14.50;5.33;;;18.50;1.00;;;;;;5056472;28;20192;-78
2023/06/28 04:28:23;;;;;;;9.87;5.23;;;18.50;1.00;;;;;;5054325;28;20204;-78
2023/06/28 04:30:49;;;;;;;10.07;4.30;;;18.50;1.00;;;;;;5050594;28;20482;-78
2023/06/28 04:33:18;;;;;;;9.00;4.90;;;18.50;1.00;;;;;;5056201;28;20447;-78
2023/06/28 04:35:46;;;;;;;11.40;5.40;;;18.50;1.00;;;;;;5055612;28;20624;-78
2023/06/28 04:38:13;;;;;;;11.80;3.47;;;18.50;1.00;;;;;;5055295;28;20457;-78
2023/06/28 04:40:39;;;;;;;8.17;4.23;;;18.40;1.00;;;;;;5056534;28;20438;-78
2023/06/28 04:43:10;;;;;;;7.60;3.60;;;18.50;1.00;;;;;;5055821;28;21309;-78
2023/06/28 04:45:38;;;;;;;8.30;3.63;;;18.40;1.00;;;;;;5051915;28;20533;-78
2023/06/28 04:48:08;;;;;;;14.63;4.70;;;18.40;1.00;;;;;;5054865;28;20489;-80
2023/06/28 04:50:34;;;;;;;8.50;3.50;;;18.40;1.00;;;;;;5054221;28;20810;-78
2023/06/28 04:53:00;;;;;;;10.03;3.30;;;18.40;1.00;;;;;;5054951;28;20496;-78
2023/06/28 04:55:32;;;;;;;8.90;3.73;;;18.40;1.00;;;;;;5055829;28;20527;-78
2023/06/28 04:58:02;;;;;;;11.20;4.40;;;18.30;1.00;;;;;;5054411;28;20493;-78
2023/06/28 05:00:28;;;;;;;14.93;4.30;;;18.30;8.00;;;;;;5056046;28;22297;-78
2023/06/28 05:02:56;;;;;;;6.27;3.10;;;18.30;50.50;;;;;;5052596;28;20492;-78
2023/06/28 05:05:23;;;;;;;7.90;3.70;;;18.30;33.60;;;;;;5055727;28;20445;-78
2023/06/28 05:07:49;;;;;;;6.77;4.10;;;18.30;11.60;;;;;;5051244;28;20946;-77
2023/06/28 05:10:15;;;;;;;9.80;4.20;;;18.40;26.80;;;;;;5054992;28;20474;-78
2023/06/28 05:12:40;;;;;;;8.70;4.97;;;18.50;98.20;;;;;;5056137;28;20534;-78
2023/06/28 05:15:06;;;;;;;8.10;3.60;;;18.60;99.90;;;;;;5055140;28;20202;-78
2023/06/28 05:17:32;;;;;;;8.13;4.40;;;18.60;99.90;;;;;;5054556;28;20216;-78
2023/06/28 05:19:57;;;;;;;13.17;4.70;;;18.70;99.90;;;;;;5054617;28;20493;-78
2023/06/28 05:22:24;;;;;;;8.20;4.37;;;18.70;99.90;;;;;;5047442;28;20571;-78
2023/06/28 05:24:50;;;;;;;12.20;4.53;;;18.70;99.90;;;;;;5053816;28;20230;-78
2023/06/28 05:27:15;;;;;;;13.77;3.93;;;18.60;99.90;;;;;;5046082;28;20533;-78
2023/06/28 05:29:41;;;;;;;6.77;4.77;;;18.60;1.00;;;;;;5054721;28;20208;-78
2023/06/28 05:32:07;;;;;;;12.30;4.90;;;18.50;84.60;;;;;;5053365;28;20202;-78
2023/06/28 05:34:32;;;;;;;12.40;4.60;;;18.50;99.90;;;;;;5037601;28;20188;-78
2023/06/28 05:36:58;;;;;;;6.90;4.93;;;18.40;99.90;;;;;;5055837;28;20435;-79
2023/06/28 05:39:23;;;;;;;7.70;3.60;;;18.30;1.00;;;;;;5055781;28;20198;-78
2023/06/28 05:41:48;;;;;;;8.90;4.20;;;18.30;1.00;;;;;;5054924;28;20188;-78
2023/06/28 05:44:18;;;;;;;8.70;3.90;;;18.40;1.00;;;;;;5028645;28;20275;-78
2023/06/28 05:46:43;;;;;;;8.90;4.43;;;18.40;1.00;;;;;;5034222;28;20204;-78
2023/06/28 05:49:09;;;;;;;5.47;3.50;;;18.40;99.90;;;;;;5052214;28;21042;-78
2023/06/28 05:51:36;;;;;;;13.43;4.30;;;18.50;99.90;;;;;;5055224;28;20178;-78
2023/06/28 05:54:02;;;;;;;12.63;3.77;;;18.60;99.90;;;;;;5051443;28;20185;-78
2023/06/28 05:56:27;;;;;;;15.60;3.87;;;18.70;15.30;;;;;;5054166;28;21073;-78
2023/06/28 05:58:53;;;;;;;15.27;3.90;;;18.80;1.00;;;;;;5051233;28;20240;-80
2023/06/28 06:01:19;;;;;;;8.27;3.60;;;18.90;1.00;;;;;;5054106;28;20215;-78
2023/06/28 06:03:44;;;;;;;8.00;3.13;;;19.10;1.00;;;;;;5050927;28;20195;-78
2023/06/28 06:06:10;;;;;;;9.07;3.30;;;19.20;99.90;;;;;;5048732;28;20201;-77
2023/06/28 06:08:35;;;;;;;11.07;3.23;;;19.30;96.60;;;;;;5050469;28;20213;-77
2023/06/28 06:11:03;;;;;;;8.00;4.03;;;19.40;1.00;;;;;;5050540;28;20751;-77
2023/06/28 06:13:29;;;;;;;11.00;3.60;;;19.40;1.00;;;;;;5049294;28;20185;-77
2023/06/28 06:15:54;;;;;;;12.03;3.77;;;19.40;1.00;;;;;;5046676;28;22098;-76
2023/06/28 06:18:20;;;;;;;11.27;3.50;;;19.40;1.00;;;;;;5049342;28;20699;-77
2023/06/28 06:20:45;;;;;;;7.77;3.40;;;19.40;1.00;;;;;;5050380;28;20195;-77
2023/06/28 06:23:11;;;;;;;6.80;2.93;;;19.40;99.90;;;;;;5049588;28;20201;-77
2023/06/28 06:25:37;;;;;;;5.57;2.97;;;19.40;99.90;;;;;;5046644;28;20182;-77
2023/06/28 06:28:03;;;;;;;4.50;3.17;;;19.40;99.90;;;;;;5047634;28;20465;-77
2023/06/28 06:30:28;;;;;;;8.93;3.40;;;19.40;99.90;;;;;;5049647;28;20708;-77
2023/06/28 06:32:54;;;;;;;11.80;3.47;;;19.40;99.90;;;;;;5049478;28;20211;-77
2023/06/28 06:35:19;;;;;;;6.40;3.23;;;19.40;99.90;;;;;;5050430;28;20184;-77
2023/06/28 06:37:45;;;;;;;5.80;3.30;;;19.40;99.90;;;;;;5049712;28;20634;-77
2023/06/28 06:40:11;;;;;;;9.33;3.80;;;19.40;99.90;;;;;;5049767;28;20192;-77
2023/06/28 06:42:38;;;;;;;7.97;2.53;;;19.50;99.90;;;;;;5046784;28;20453;-77
2023/06/28 06:45:05;;;;;;;7.63;3.33;;;19.50;99.90;;;;;;5050149;28;20461;-77
2023/06/28 06:47:30;;;;;;;11.20;3.63;;;19.50;99.90;;;;;;5046745;28;20469;-77
2023/06/28 06:49:56;;;;;;;9.73;3.60;;;19.50;99.90;;;;;;5049240;28;20561;-77
2023/06/28 06:52:21;;;;;;;8.77;3.43;;;19.40;99.90;;;;;;5049194;28;20185;-77
2023/06/28 06:54:47;;;;;;;8.73;3.37;;;19.30;99.90;;;;;;5050696;28;20191;-77
2023/06/28 06:57:14;;;;;;;5.77;3.33;;;19.30;99.90;;;;;;5049785;28;20182;-77
2023/06/28 06:59:40;;;;;;;9.53;3.80;;;19.30;99.90;;;;;;5046330;28;20187;-77
2023/06/28 07:02:05;;;;;;;7.90;3.33;;;19.20;99.90;;;;;;5048622;28;20445;-77
2023/06/28 07:04:31;;;;;;;8.83;3.20;;;19.30;99.90;;;;;;5048859;28;20188;-77
2023/06/28 07:06:57;;;;;;;8.17;3.47;;;19.30;99.90;;;;;;5049277;28;20675;-77
2023/06/28 07:09:24;;;;;;;6.70;3.00;;;19.20;99.90;;;;;;5049772;28;20207;-77
2023/06/28 07:11:49;;;;;;;7.63;2.57;;;19.20;99.90;;;;;;5049259;28;20173;-76
2023/06/28 07:14:15;;;;;;;6.17;3.03;;;19.30;99.90;;;;;;5047510;28;20436;-78
2023/06/28 07:16:44;;;;;;;7.97;3.07;;;19.40;99.90;;;;;;5045398;28;20183;-77
2023/06/28 07:19:11;;;;;;;8.63;3.07;;;19.40;99.90;;;;;;5053833;28;20194;-76
2023/06/28 07:21:36;;;;;;;8.83;3.43;;;19.50;93.30;;;;;;5048924;28;20452;-77
2023/06/28 07:24:02;;;;;;;8.40;3.60;;;19.60;19.10;;;;;;5048643;28;20925;-77
2023/06/28 07:26:27;;;;;;;8.53;3.43;;;19.70;1.00;;;;;;5049119;28;20185;-77
2023/06/28 07:28:54;;;;;;;7.97;3.93;;;19.90;1.00;;;;;;5048237;28;20195;-77
2023/06/28 07:31:20;;;;;;;6.80;3.10;;;19.90;1.00;;;;;;5048431;28;20182;-77
2023/06/28 07:33:45;;;;;;;9.23;3.60;;;20.00;1.00;;;;;;5044988;28;20501;-77
2023/06/28 07:36:11;;;;;;;10.00;3.00;;;20.10;1.00;;;;;;5048680;28;20193;-77
2023/06/28 07:38:37;;;;;;;8.60;3.67;;;20.20;1.00;;;;;;5043332;28;20291;-77
2023/06/28 07:41:02;;;;;;;10.40;3.00;;;20.30;1.00;;;;;;5048457;28;20192;-77
2023/06/28 07:43:28;;;;;;;8.13;3.50;;;20.30;1.00;;;;;;5049355;28;20197;-76
2023/06/28 07:45:53;;;;;;;7.90;2.80;;;20.40;1.00;;;;;;5047442;28;20189;-77
2023/06/28 07:48:20;;;;;;;6.97;3.77;;;20.50;1.00;;;;;;5047527;28;20213;-77
2023/06/28 07:50:47;;;;;;;14.07;3.53;;;20.60;1.00;;;;;;5045413;28;20213;-76
2023/06/28 07:53:13;;;;;;;5.50;3.50;;;20.50;99.90;;;;;;5048471;28;20438;-77
2023/06/28 07:55:38;;;;;;;7.70;3.40;;;20.60;99.90;;;;;;5043465;28;20994;-77
2023/06/28 07:58:04;;;;;;;9.00;3.23;;;20.60;99.90;;;;;;5048622;28;20456;-77
2023/06/28 08:00:31;;;;;;;8.30;3.73;;;20.60;99.90;;;;;;5047769;28;20315;-77
2023/06/28 08:02:56;;;;;;;8.93;3.30;;;20.60;99.90;;;;;;5048299;28;20189;-77
2023/06/28 08:05:22;;;;;;;7.67;3.70;;;20.70;99.90;;;;;;5049233;28;20433;-77
2023/06/28 08:07:48;;;;;;;7.03;3.10;;;20.80;99.90;;;;;;5045577;28;20220;-77
2023/06/28 08:10:14;;;;;;;11.67;4.23;;;20.90;99.90;;;;;;5048216;28;20208;-77
2023/06/28 08:12:39;;;;;;;9.80;3.20;;;20.90;99.90;;;;;;5047673;28;20436;-76
2023/06/28 08:15:05;;;;;;;9.20;3.87;;;20.80;99.90;;;;;;5047950;28;20198;-77
2023/06/28 08:17:31;;;;;;;8.40;3.80;;;20.90;99.90;;;;;;5047923;28;20190;-76
2023/06/28 08:19:56;;;;;;;6.50;3.87;;;20.90;99.90;;;;;;5048820;28;20447;-77
2023/06/28 08:22:22;;;;;;;6.93;3.07;;;20.90;99.90;;;;;;5044544;28;20189;-77
2023/06/28 08:24:48;;;;;;;9.57;3.90;;;20.90;99.90;;;;;;5049145;28;20195;-77
2023/06/28 08:27:14;;;;;;;7.40;3.40;;;21.00;99.90;;;;;;5048294;28;20219;-77
2023/06/28 08:29:40;;;;;;;7.13;3.57;;;21.00;99.90;;;;;;5050717;28;20465;-77
2023/06/28 08:32:06;;;;;;;5.93;3.10;;;21.00;99.90;;;;;;5052332;28;20447;-77
2023/06/28 08:34:31;;;;;;;6.27;3.10;;;21.00;99.90;;;;;;5049127;28;20402;-76
2023/06/28 08:36:56;;;;;;;6.80;2.73;;;21.10;99.90;;;;;;5052842;28;21935;-77
2023/06/28 08:39:22;;;;;;;7.00;3.37;;;21.20;99.90;;;;;;5032533;28;20211;-77
2023/06/28 08:41:50;;;;;;;10.43;3.07;;;21.30;99.90;;;;;;5048317;28;20268;-77
2023/06/28 08:44:19;;;;;;;7.10;3.27;;;21.50;99.90;;;;;;5047558;28;20194;-77
2023/06/28 08:46:47;;;;;;;8.50;3.40;;;21.60;99.90;;;;;;5047423;28;20460;-77
2023/06/28 08:49:13;;;;;;;7.03;3.13;;;21.60;99.90;;;;;;5041344;28;20500;-77
2023/06/28 08:51:39;;;;;;;10.83;3.43;;;21.70;99.90;;;;;;5052085;28;20504;-77
2023/06/28 08:54:07;;;;;;;7.53;3.00;;;21.80;99.90;;;;;;5048260;28;20449;-77
2023/06/28 08:56:32;;;;;;;6.87;3.07;;;21.90;99.90;;;;;;5047015;28;20842;-77
2023/06/28 08:58:59;;;;;;;7.47;3.57;;;22.00;99.90;;;;;;5049395;28;20461;-77
2023/06/28 09:01:25;;;;;;;4.47;2.80;;;22.10;99.90;;;;;;5051050;28;20188;-77
2023/06/28 09:03:51;;;;;;;7.13;3.00;;;22.10;99.90;;;;;;5050421;28;20528;-77
2023/06/28 09:06:17;;;;;;;8.73;2.97;;;22.00;99.90;;;;;;5049902;28;20422;-77
2023/06/28 09:08:46;;;;;;;8.60;3.40;;;22.10;99.90;;;;;;5050071;28;20445;-77
2023/06/28 09:11:12;;;;;;;5.53;2.97;;;22.10;99.90;;;;;;5050711;28;20215;-77
2023/06/28 09:13:38;;;;;;;8.50;3.23;;;22.20;99.90;;;;;;5046364;28;21026;-77
2023/06/28 09:16:08;;;;;;;5.63;2.90;;;22.20;99.90;;;;;;5050770;28;20195;-77
2023/06/28 09:18:33;;;;;;;7.13;3.03;;;22.30;99.90;;;;;;5049947;28;20450;-77
2023/06/28 09:20:59;;;;;;;10.43;3.87;;;22.40;99.90;;;;;;5050688;28;20460;-77
2023/06/28 09:23:27;;;;;;;7.10;3.13;;;22.60;99.90;;;;;;5033110;28;20192;-77
2023/06/28 09:25:53;;;;;;;4.73;2.80;;;22.70;99.90;;;;;;5050384;28;20185;-77
2023/06/28 09:28:19;;;;;;;5.83;3.23;;;22.70;99.90;;;;;;5030078;28;20483;-77
2023/06/28 09:30:51;;;;;;;9.10;3.50;;;22.80;99.90;;;;;;5050204;28;20471;-77
2023/06/28 09:33:18;;;;;;;12.80;3.13;;;22.70;99.90;;;;;;5042559;28;20431;-77
2023/06/28 09:35:44;;;;;;;8.00;3.20;;;22.70;99.90;;;;;;5051010;28;20517;-77
2023/06/28 09:38:10;;;;;;;11.07;3.40;;;22.50;99.90;;;;;;5051376;28;21024;-77
2023/06/28 09:40:35;;;;;;;9.10;4.17;;;22.50;99.90;;;;;;5049701;28;20443;-77
2023/06/28 09:43:01;;;;;;;7.90;3.57;;;22.50;99.90;;;;;;5049345;28;20189;-77
2023/06/28 09:45:28;;;;;;;7.80;3.30;;;22.50;99.90;;;;;;5047034;28;20185;-77
2023/06/28 09:47:59;;;;;;;9.27;3.33;;;22.60;99.90;;;;;;5049807;28;20474;-78
2023/06/28 09:50:36;;;;;;;6.67;3.30;;;22.70;99.90;;;;;;5031434;28;20463;-77
2023/06/28 09:53:02;;;;;;;9.50;3.40;;;22.80;99.90;;;;;;5046576;28;20480;-77
2023/06/28 09:55:28;;;;;;;7.63;3.00;;;22.90;99.90;;;;;;5044477;28;20515;-77
2023/06/28 09:57:56;;;;;;;8.80;3.30;;;23.10;99.90;;;;;;5051122;28;20530;-77
2023/06/28 10:00:23;;;;;;;6.03;3.33;;;23.20;99.90;;;;;;5050659;28;20428;-77
2023/06/28 10:02:49;;;;;;;9.43;3.90;;;23.30;99.90;;;;;;5051582;28;20955;-76
2023/06/28 10:05:15;;;;;;;6.70;3.17;;;23.40;99.90;;;;;;5050462;28;21178;-77
2023/06/28 10:07:43;;;;;;;9.00;4.20;;;23.60;99.90;;;;;;5051902;28;20480;-77
2023/06/28 10:10:10;;;;;;;5.67;3.30;;;23.70;99.90;;;;;;5049863;28;21050;-77
2023/06/28 10:12:37;;;;;;;5.57;3.23;;;23.70;99.90;;;;;;5042751;28;20440;-76
2023/06/28 10:15:10;;;;;;;9.17;3.17;;;23.90;99.90;;;;;;5046748;28;20429;-77
2023/06/28 10:17:37;;;;;;;6.00;3.70;;;23.90;99.90;;;;;;5049780;28;20451;-77
2023/06/28 10:20:07;;;;;;;11.73;3.47;;;24.10;99.90;;;;;;5050303;28;20481;-77
2023/06/28 10:22:33;;;;;;;8.23;3.80;;;24.40;99.90;;;;;;5050865;28;20885;-77
2023/06/28 10:25:01;;;;;;;7.17;3.77;;;24.80;99.90;;;;;;5048222;28;20448;-77
2023/06/28 10:27:28;;;;;;;8.30;3.50;;;25.10;99.90;;;;;;5033251;28;20462;-77
2023/06/28 10:29:54;;;;;;;9.23;3.73;;;25.40;99.90;;;;;;5043435;28;20539;-77
2023/06/28 10:32:20;;;;;;;7.10;3.40;;;25.70;99.90;;;;;;5043590;28;20438;-77
2023/06/28 10:34:47;;;;;;;8.60;3.40;;;26.20;99.90;;;;;;5049851;28;20432;-78
2023/06/28 10:37:13;;;;;;;9.00;4.13;;;26.80;99.90;;;;;;5051466;28;20190;-78
2023/06/28 10:39:39;;;;;;;5.93;3.10;;;27.30;99.90;;;;;;5049464;28;20443;-76
2023/06/28 10:42:05;;;;;;;7.47;3.47;;;27.60;99.90;;;;;;5050567;28;20686;-78
2023/06/28 10:44:31;;;;;;;12.30;3.57;;;27.70;99.90;;;;;;5047629;28;20424;-77
2023/06/28 10:47:16;;;;;;;6.20;3.13;;;27.70;99.90;;;;;;5047611;28;20444;-77
2023/06/28 10:49:42;;;;;;;6.53;3.40;;;27.70;99.90;;;;;;5049691;28;20198;-77
2023/06/28 10:52:15;;;;;;;7.47;3.10;;;27.70;99.90;;;;;;5050552;28;20446;-77
2023/06/28 10:54:41;;;;;;;6.93;3.23;;;27.70;99.90;;;;;;5046782;28;20440;-77
2023/06/28 10:57:10;;;;;;;7.33;4.10;;;27.60;99.90;;;;;;5050875;28;20436;-77
2023/06/28 10:59:40;;;;;;;8.17;3.17;;;27.60;99.90;;;;;;5045112;28;20209;-77
2023/06/28 11:02:05;;;;;;;10.70;3.70;;;27.60;99.90;;;;;;5047915;28;20856;-78
2023/06/28 11:04:31;;;;;;;8.57;3.70;;;27.50;98.60;;;;;;5046703;28;20530;-77
2023/06/28 11:07:02;;;;;;;10.97;4.47;;;27.50;97.10;;;;;;5049671;28;20186;-78
2023/06/28 11:09:28;;;;;;;6.53;4.00;;;27.30;96.20;;;;;;5042367;28;20212;-77
2023/06/28 11:11:59;;;;;;;7.23;3.63;;;27.20;94.70;;;;;;5050852;28;20427;-78
2023/06/28 11:14:26;;;;;;;10.53;3.80;;;27.10;93.60;;;;;;5047370;28;20299;-77
2023/06/28 11:17:00;;;;;;;9.13;3.57;;;27.10;93.50;;;;;;5049225;28;20431;-77
2023/06/28 11:19:27;;;;;;;7.97;4.23;;;27.10;93.00;;;;;;5047052;28;20980;-77
2023/06/28 11:22:00;;;;;;;8.50;3.80;;;27.10;92.30;;;;;;5027559;28;20451;-77
2023/06/28 11:24:29;;;;;;;12.50;4.60;;;27.20;91.60;;;;;;5047437;28;20432;-78
2023/06/28 11:26:55;;;;;;;9.87;3.90;;;27.10;90.90;;;;;;5049323;28;20436;-77
2023/06/28 11:29:21;;;;;;;9.83;3.87;;;27.00;89.90;;;;;;5050176;28;20468;-77
2023/06/28 11:31:51;;;;;;;7.83;4.07;;;26.90;88.50;;;;;;5050199;28;20478;-77
2023/06/28 11:34:18;;;;;;;7.30;3.97;;;26.80;84.80;;;;;;5048225;28;20917;-77
2023/06/28 11:36:44;;;;;;;8.97;3.13;;;26.80;84.40;;;;;;5049559;28;20432;-78
2023/06/28 11:39:22;;;;;;;8.90;3.70;;;26.80;84.70;;;;;;5044853;28;20505;-78
2023/06/28 11:41:48;;;;;;;7.07;3.30;;;26.90;84.20;;;;;;5047560;28;20446;-78
2023/06/28 11:44:15;;;;;;;8.27;4.33;;;27.10;84.50;;;;;;5046525;28;20443;-78
2023/06/28 11:46:45;;;;;;;8.87;3.50;;;27.30;83.60;;;;;;5049337;28;20527;-79
2023/06/28 11:49:11;;;;;;;8.17;3.43;;;27.50;82.40;;;;;;5031275;28;20456;-78
2023/06/28 11:51:37;;;;;;;5.27;2.97;;;27.60;82.20;;;;;;5049989;28;20459;-78
2023/06/28 11:54:06;;;;;;;9.60;3.60;;;27.70;78.90;;;;;;5048897;28;20420;-79
2023/06/28 11:56:39;;;;;;;13.33;3.97;;;27.80;78.20;;;;;;5046682;28;20178;-78
2023/06/28 11:59:12;;;;;;;6.47;3.63;;;28.00;76.60;;;;;;5049313;28;20966;-78
2023/06/28 12:01:38;;;;;;;8.27;3.80;;;28.30;75.80;;;;;;5047747;28;20574;-78
2023/06/28 12:04:18;;;;;;;5.00;3.47;;;28.40;74.30;;;;;;5053668;28;20463;-78
2023/06/28 12:06:44;;;;;;;5.83;2.97;;;28.70;73.40;;;;;;5054190;28;20221;-78
2023/06/28 12:09:17;;;;;;;7.37;3.00;;;29.10;73.00;;;;;;5050585;28;20524;-78
2023/06/28 12:11:52;;;;;;;6.70;3.30;;;29.40;72.10;;;;;;5035053;28;20443;-78
2023/06/28 12:14:19;;;;;;;11.30;3.47;;;29.50;70.60;;;;;;5049631;28;20436;-78
2023/06/28 12:16:45;;;;;;;6.57;3.70;;;29.60;67.90;;;;;;5052855;28;20428;-79
2023/06/28 12:19:14;;;;;;;9.97;4.00;;;29.60;65.00;;;;;;5050956;28;20482;-78
2023/06/28 12:21:39;;;;;;;9.60;3.43;;;29.50;61.70;;;;;;5054874;28;20494;-80
2023/06/28 12:24:14;;;;;;;6.57;3.30;;;29.30;59.00;;;;;;5049724;28;20816;-79
2023/06/28 12:26:42;;;;;;;6.90;3.10;;;29.20;57.10;;;;;;5049317;28;20211;-79
2023/06/28 12:29:08;;;;;;;6.10;3.17;;;28.90;55.90;;;;;;5052048;28;20460;-79
2023/06/28 12:31:46;;;;;;;9.03;3.73;;;28.80;54.80;;;;;;5053558;28;21020;-77
2023/06/28 12:34:34;;;;;;;7.13;3.70;;;28.70;53.30;;;;;;5053671;28;20719;-79
2023/06/28 12:37:10;;;;;;;5.90;3.43;;;28.70;52.70;;;;;;5052043;28;20502;-80
2023/06/28 12:39:40;;;;;;;7.30;3.37;;;28.70;52.60;;;;;;5056223;28;20451;-78
2023/06/28 12:42:22;;;;;;;6.87;3.30;;;28.60;51.80;;;;;;5053072;28;20439;-79
2023/06/28 12:44:51;;;;;;;6.80;3.10;;;28.80;51.20;;;;;;5052760;28;20440;-79